createdAt,value
2023-02-23T00:01:21.990Z,58.10
2023-02-23T00:03:50.256Z,58.00
2023-02-23T00:06:19.767Z,58.10
2023-02-23T00:08:48.794Z,58.10
2023-02-23T00:11:17.399Z,58.10
2023-02-23T00:13:47.029Z,58.10
2023-02-23T00:16:16.630Z,58.30
2023-02-23T00:18:45.976Z,58.10
2023-02-23T00:21:15.617Z,58.30
2023-02-23T00:23:48.808Z,58.30
2023-02-23T00:26:16.749Z,58.80
2023-02-23T00:28:44.995Z,59.00
2023-02-23T00:31:12.866Z,59.40
2023-02-23T00:33:41.198Z,59.40
2023-02-23T00:36:11.424Z,59.50
2023-02-23T00:38:40.017Z,59.50
2023-02-23T00:41:12.464Z,59.30
2023-02-23T00:43:47.391Z,59.40
2023-02-23T00:46:16.492Z,59.50
2023-02-23T00:48:45.090Z,59.60
2023-02-23T00:51:13.030Z,60.70
2023-02-23T00:53:41.373Z,59.70
2023-02-23T00:56:12.605Z,59.70
2023-02-23T00:58:40.561Z,59.90
2023-02-23T01:01:08.746Z,59.90
2023-02-23T01:03:37.028Z,60.00
2023-02-23T01:06:06.611Z,60.00
2023-02-23T01:08:34.551Z,60.60
2023-02-23T01:11:07.051Z,60.10
2023-02-23T01:13:36.328Z,60.10
2023-02-23T01:16:07.035Z,60.00
2023-02-23T01:18:35.642Z,60.10
2023-02-23T01:21:05.342Z,59.90
2023-02-23T01:23:33.323Z,60.00
2023-02-23T01:26:01.189Z,60.00
2023-02-23T01:28:29.051Z,60.80
2023-02-23T01:30:58.295Z,59.90
2023-02-23T01:33:26.225Z,59.90
2023-02-23T01:36:00.138Z,60.10
2023-02-23T01:38:28.156Z,60.00
2023-02-23T01:40:56.090Z,60.10
2023-02-23T01:43:26.080Z,60.00
2023-02-23T01:45:55.683Z,60.00
2023-02-23T01:48:27.636Z,60.20
2023-02-23T01:50:57.282Z,60.10
2023-02-23T01:53:25.572Z,60.10
2023-02-23T01:55:56.079Z,60.00
2023-02-23T01:58:24.615Z,60.00
2023-02-23T02:00:55.135Z,60.00
2023-02-23T02:03:28.848Z,60.20
2023-02-23T02:05:57.747Z,60.20
2023-02-23T02:08:26.703Z,60.20
2023-02-23T02:10:57.542Z,60.30
2023-02-23T02:13:26.735Z,60.20
2023-02-23T02:16:18.611Z,60.30
2023-02-23T02:19:03.234Z,60.20
2023-02-23T02:21:53.905Z,60.30
2023-02-23T02:24:47.417Z,60.30
2023-02-23T02:27:22.406Z,60.20
2023-02-23T02:30:16.778Z,60.20
2023-02-23T02:33:16.140Z,60.00
2023-02-23T02:36:17.721Z,60.10
2023-02-23T02:38:53.769Z,60.00
2023-02-23T02:41:27.935Z,59.90
2023-02-23T02:43:58.819Z,59.80
2023-02-23T02:46:28.614Z,59.80
2023-02-23T02:48:59.292Z,59.70
2023-02-23T02:51:28.536Z,59.80
2023-02-23T02:54:06.578Z,59.90
2023-02-23T02:56:39.944Z,60.00
2023-02-23T02:59:27.124Z,60.10
2023-02-23T03:02:12.778Z,60.00
2023-02-23T03:04:58.476Z,60.00
2023-02-23T03:07:48.091Z,60.00
2023-02-23T03:10:37.855Z,60.00
2023-02-23T03:13:30.512Z,60.00
2023-02-23T03:16:19.589Z,60.00
2023-02-23T03:19:13.084Z,60.10
2023-02-23T03:22:03.568Z,60.10
2023-02-23T03:24:53.483Z,60.00
2023-02-23T03:27:43.669Z,60.00
2023-02-23T03:30:31.470Z,59.90
2023-02-23T03:33:18.295Z,59.90
2023-02-23T03:36:04.867Z,60.00
2023-02-23T03:38:52.705Z,59.80
2023-02-23T03:41:38.038Z,59.90
2023-02-23T03:44:27.280Z,59.80
2023-02-23T03:47:12.907Z,59.70
2023-02-23T03:49:59.314Z,59.70
2023-02-23T03:52:48.000Z,59.70
2023-02-23T03:55:35.043Z,59.60
2023-02-23T03:58:21.340Z,59.70
2023-02-23T04:01:08.015Z,59.60
2023-02-23T04:03:54.075Z,59.40
2023-02-23T04:06:40.668Z,59.40
2023-02-23T04:09:26.273Z,59.40
2023-02-23T04:12:15.195Z,59.50
2023-02-23T04:14:43.395Z,59.50
2023-02-23T04:17:12.851Z,59.50
2023-02-23T04:19:40.918Z,59.40
2023-02-23T04:22:08.775Z,59.30
2023-02-23T04:24:36.648Z,59.20
2023-02-23T04:27:04.766Z,59.10
2023-02-23T04:29:32.644Z,59.10
2023-02-23T04:32:00.589Z,59.10
2023-02-23T04:34:29.903Z,59.00
2023-02-23T04:36:57.793Z,59.10
2023-02-23T04:39:25.754Z,59.00
2023-02-23T04:41:53.614Z,58.90
2023-02-23T04:44:21.642Z,58.90
2023-02-23T04:46:49.540Z,58.90
2023-02-23T04:49:17.548Z,58.80
2023-02-23T04:51:47.630Z,58.70
2023-02-23T04:54:15.485Z,58.60
2023-02-23T04:56:43.346Z,59.10
2023-02-23T04:59:11.270Z,59.20
2023-02-23T05:01:39.181Z,59.10
2023-02-23T05:04:06.997Z,59.10
2023-02-23T05:06:34.869Z,59.20
2023-02-23T05:09:05.145Z,59.30
2023-02-23T05:11:33.402Z,59.00
2023-02-23T05:14:01.344Z,59.10
2023-02-23T05:16:29.525Z,58.80
2023-02-23T05:18:57.437Z,58.60
2023-02-23T05:21:25.858Z,58.60
2023-02-23T05:23:53.785Z,58.60
2023-02-23T05:26:22.998Z,58.40
2023-02-23T05:28:50.847Z,58.40
2023-02-23T05:31:19.199Z,58.30
2023-02-23T05:33:47.487Z,58.30
2023-02-23T05:36:16.672Z,58.30
2023-02-23T05:38:45.717Z,58.30
2023-02-23T05:41:14.648Z,58.30
2023-02-23T05:43:43.852Z,58.40
2023-02-23T05:46:12.814Z,58.30
2023-02-23T05:48:40.749Z,58.40
2023-02-23T05:51:09.730Z,58.30
2023-02-23T05:53:37.683Z,58.30
2023-02-23T05:56:06.516Z,58.20
2023-02-23T05:58:34.370Z,58.10
2023-02-23T06:01:03.543Z,58.30
2023-02-23T06:03:31.440Z,58.10
2023-02-23T06:05:59.860Z,57.90
2023-02-23T06:08:27.746Z,57.80
2023-02-23T06:10:55.607Z,57.80
2023-02-23T06:13:23.460Z,57.70
2023-02-23T06:15:51.314Z,57.50
2023-02-23T06:18:21.800Z,57.40
2023-02-23T06:20:49.723Z,57.30
2023-02-23T06:23:17.555Z,57.20
2023-02-23T06:25:45.503Z,57.10
2023-02-23T06:28:13.620Z,57.00
2023-02-23T06:30:41.556Z,57.10
2023-02-23T06:33:09.478Z,57.00
2023-02-23T06:35:38.725Z,57.00
2023-02-23T06:38:06.717Z,56.90
2023-02-23T06:40:34.604Z,56.80
2023-02-23T06:43:03.583Z,56.80
2023-02-23T06:45:31.767Z,56.80
2023-02-23T06:47:59.722Z,56.90
2023-02-23T06:50:27.612Z,56.70
2023-02-23T06:52:57.529Z,56.70
2023-02-23T06:55:25.556Z,56.70
2023-02-23T06:57:54.393Z,56.70
2023-02-23T07:00:23.221Z,56.70
2023-02-23T07:02:51.140Z,56.90
2023-02-23T07:05:19.444Z,57.00
2023-02-23T07:07:47.383Z,56.80
2023-02-23T07:10:16.569Z,56.90
2023-02-23T07:12:44.389Z,56.90
2023-02-23T07:15:12.652Z,56.90
2023-02-23T07:17:40.512Z,57.00
2023-02-23T07:20:09.056Z,56.90
2023-02-23T07:22:39.765Z,56.80
2023-02-23T07:25:09.257Z,56.80
2023-02-23T07:27:38.552Z,56.70
2023-02-23T07:30:07.729Z,56.70
2023-02-23T07:32:35.700Z,56.70
2023-02-23T07:35:03.844Z,56.60
2023-02-23T07:37:31.743Z,56.60
2023-02-23T07:40:01.168Z,56.50
2023-02-23T07:42:29.518Z,56.60
2023-02-23T07:44:58.685Z,56.50
2023-02-23T07:47:31.035Z,56.50
2023-02-23T07:50:00.553Z,56.50
2023-02-23T07:52:28.432Z,56.40
2023-02-23T07:54:56.538Z,56.50
2023-02-23T07:57:25.063Z,56.30
2023-02-23T07:59:53.017Z,56.20
2023-02-23T08:02:22.244Z,56.20
2023-02-23T08:04:50.645Z,56.20
2023-02-23T08:07:18.512Z,56.20
2023-02-23T08:09:46.356Z,56.30
2023-02-23T08:12:15.395Z,56.20
2023-02-23T08:14:43.688Z,56.20
2023-02-23T08:17:11.645Z,56.20
2023-02-23T08:19:41.185Z,56.10
2023-02-23T08:22:10.256Z,56.00
2023-02-23T08:24:38.480Z,56.00
2023-02-23T08:27:06.430Z,56.00
2023-02-23T08:29:34.911Z,55.90
2023-02-23T08:32:03.702Z,55.80
2023-02-23T08:34:31.724Z,55.80
2023-02-23T08:37:01.063Z,55.80
2023-02-23T08:39:29.125Z,55.60
2023-02-23T08:41:56.966Z,55.60
2023-02-23T08:44:24.999Z,55.50
2023-02-23T08:46:53.784Z,55.50
2023-02-23T08:49:21.732Z,55.40
2023-02-23T08:51:50.260Z,55.40
2023-02-23T08:54:20.323Z,55.40
2023-02-23T08:56:48.146Z,55.30
2023-02-23T08:59:16.356Z,55.30
2023-02-23T09:01:44.296Z,56.20
2023-02-23T09:04:12.159Z,55.20
2023-02-23T09:06:40.943Z,55.30
2023-02-23T09:09:08.784Z,55.10
2023-02-23T09:11:38.003Z,55.10
2023-02-23T09:14:05.852Z,55.20
2023-02-23T09:16:34.018Z,55.30
2023-02-23T09:19:01.890Z,55.40
2023-02-23T09:21:30.801Z,55.40
2023-02-23T09:23:58.687Z,55.40
2023-02-23T09:26:29.407Z,55.40
2023-02-23T09:28:59.526Z,55.30
2023-02-23T09:31:27.509Z,55.40
2023-02-23T09:33:55.511Z,55.40
2023-02-23T09:36:24.525Z,55.40
2023-02-23T09:38:55.261Z,55.50
2023-02-23T09:41:55.177Z,55.60
2023-02-23T09:44:27.784Z,56.10
2023-02-23T09:47:01.682Z,56.30
2023-02-23T09:49:30.953Z,56.60
2023-02-23T09:51:59.598Z,56.90
2023-02-23T09:54:29.548Z,56.90
2023-02-23T09:56:58.402Z,57.00
2023-02-23T09:59:29.253Z,57.30
2023-02-23T10:02:05.467Z,57.30
2023-02-23T10:04:34.337Z,57.30
2023-02-23T10:07:04.252Z,57.40
2023-02-23T10:09:43.439Z,57.20
2023-02-23T10:12:12.732Z,57.30
2023-02-23T10:14:56.224Z,57.30
2023-02-23T10:17:30.471Z,57.30
2023-02-23T10:20:01.492Z,57.30
2023-02-23T10:22:29.670Z,57.30
2023-02-23T10:24:58.756Z,57.30
2023-02-23T10:27:30.309Z,57.40
2023-02-23T10:30:01.440Z,57.30
2023-02-23T10:32:33.716Z,57.30
2023-02-23T10:35:01.651Z,57.30
2023-02-23T10:37:29.650Z,57.40
2023-02-23T10:39:57.709Z,57.40
2023-02-23T10:42:28.921Z,57.30
2023-02-23T10:44:58.668Z,57.50
2023-02-23T10:47:28.633Z,57.40
2023-02-23T10:49:57.151Z,57.20
2023-02-23T10:52:31.708Z,57.30
2023-02-23T10:55:00.602Z,57.30
2023-02-23T10:57:30.190Z,57.30
2023-02-23T11:00:32.749Z,57.40
2023-02-23T11:03:03.088Z,57.40
2023-02-23T11:05:38.875Z,57.30
2023-02-23T11:08:20.780Z,57.20
2023-02-23T11:11:00.212Z,57.30
2023-02-23T11:13:28.848Z,57.10
2023-02-23T11:16:04.958Z,56.80
2023-02-23T11:18:32.914Z,56.80
2023-02-23T11:21:00.769Z,56.60
2023-02-23T11:23:30.082Z,56.60
2023-02-23T11:26:00.938Z,56.60
2023-02-23T11:28:30.958Z,56.30
2023-02-23T11:31:01.627Z,57.30
2023-02-23T11:33:35.753Z,56.20
2023-02-23T11:36:16.484Z,56.00
2023-02-23T11:38:45.604Z,56.00
2023-02-23T11:41:22.201Z,56.00
2023-02-23T11:43:51.175Z,55.80
2023-02-23T11:46:21.836Z,55.90
2023-02-23T11:48:52.765Z,55.80
2023-02-23T11:51:25.634Z,56.00
2023-02-23T11:53:53.587Z,56.10
2023-02-23T11:56:22.548Z,56.50
2023-02-23T11:58:51.130Z,57.20
2023-02-23T12:01:20.983Z,57.20
2023-02-23T12:03:50.450Z,57.50
2023-02-23T12:06:30.341Z,57.60
2023-02-23T12:09:02.886Z,57.60
2023-02-23T12:11:32.518Z,57.90
2023-02-23T12:14:03.237Z,58.10
2023-02-23T12:16:33.531Z,58.30
2023-02-23T12:19:02.761Z,58.50
2023-02-23T12:21:35.104Z,58.90
2023-02-23T12:24:14.378Z,59.40
2023-02-23T12:26:46.405Z,59.50
2023-02-23T12:29:19.632Z,59.30
2023-02-23T12:31:48.801Z,59.00
2023-02-23T12:34:19.148Z,60.00
2023-02-23T12:36:50.852Z,59.00
2023-02-23T12:39:22.378Z,59.00
2023-02-23T12:41:56.661Z,58.80
2023-02-23T12:44:32.634Z,58.60
2023-02-23T12:47:03.563Z,58.60
2023-02-23T12:49:33.129Z,58.40
2023-02-23T12:52:08.446Z,58.40
2023-02-23T12:54:37.291Z,58.30
2023-02-23T12:57:10.781Z,58.10
2023-02-23T12:59:54.011Z,58.10
2023-02-23T13:02:24.779Z,58.10
2023-02-23T13:05:12.915Z,57.70
2023-02-23T13:07:45.147Z,57.40
2023-02-23T13:10:17.188Z,58.30
2023-02-23T13:12:49.847Z,58.50
2023-02-23T13:15:26.883Z,58.30
2023-02-23T13:17:57.497Z,58.10
2023-02-23T13:20:28.632Z,57.90
2023-02-23T13:22:59.594Z,57.90
2023-02-23T13:25:33.963Z,58.90
2023-02-23T13:28:02.031Z,58.00
2023-02-23T13:30:32.340Z,57.70
2023-02-23T13:33:02.362Z,57.60
2023-02-23T13:35:31.975Z,57.50
2023-02-23T13:38:04.570Z,57.40
2023-02-23T13:40:33.361Z,58.70
2023-02-23T13:43:07.723Z,57.70
2023-02-23T13:46:15.555Z,58.50
2023-02-23T13:48:56.790Z,57.30
2023-02-23T13:51:31.932Z,57.30
2023-02-23T13:54:02.844Z,57.20
2023-02-23T13:56:31.349Z,57.20
2023-02-23T13:59:01.036Z,57.10
2023-02-23T14:01:31.236Z,57.00
2023-02-23T14:03:59.788Z,57.00
2023-02-23T14:06:28.678Z,56.90
2023-02-23T14:09:00.721Z,56.90
2023-02-23T14:11:49.497Z,57.00
2023-02-23T14:14:43.211Z,57.00
2023-02-23T14:17:42.379Z,56.90
2023-02-23T14:20:29.316Z,56.70
2023-02-23T14:23:16.691Z,56.60
2023-02-23T14:25:49.258Z,56.50
2023-02-23T14:28:34.876Z,56.30
2023-02-23T14:31:03.848Z,56.40
2023-02-23T14:33:36.272Z,56.30
2023-02-23T14:36:04.235Z,56.20
2023-02-23T14:38:46.910Z,56.10
2023-02-23T14:41:15.577Z,56.00
2023-02-23T14:43:45.635Z,56.00
2023-02-23T14:46:17.760Z,56.10
2023-02-23T14:48:46.572Z,56.00
2023-02-23T14:51:19.607Z,55.80
2023-02-23T14:53:47.544Z,55.80
2023-02-23T14:56:20.001Z,55.90
2023-02-23T14:58:52.649Z,55.90
2023-02-23T15:01:33.939Z,55.80
2023-02-23T15:04:09.054Z,55.80
2023-02-23T15:06:37.878Z,55.70
2023-02-23T15:09:05.883Z,55.50
2023-02-23T15:11:33.764Z,55.50
2023-02-23T15:14:03.153Z,55.40
2023-02-23T15:16:34.256Z,55.40
2023-02-23T15:19:02.410Z,55.40
2023-02-23T15:21:30.288Z,55.30
2023-02-23T15:24:05.469Z,55.30
2023-02-23T15:26:35.108Z,55.30
2023-02-23T15:29:14.504Z,55.30
2023-02-23T15:31:50.673Z,55.30
2023-02-23T15:34:19.904Z,55.20
2023-02-23T15:36:53.389Z,55.10
2023-02-23T15:39:23.051Z,55.20
2023-02-23T15:41:51.012Z,55.20
2023-02-23T15:44:22.815Z,55.20
2023-02-23T15:46:52.554Z,55.10
2023-02-23T15:49:21.925Z,55.20
2023-02-23T15:51:50.947Z,55.20
2023-02-23T15:54:20.601Z,55.20
2023-02-23T15:56:49.922Z,55.10
2023-02-23T15:59:23.720Z,55.00
2023-02-23T16:01:53.990Z,55.00
2023-02-23T16:04:22.245Z,54.90
2023-02-23T16:06:51.878Z,54.90
2023-02-23T16:09:27.341Z,54.70
2023-02-23T16:11:56.318Z,54.80
2023-02-23T16:14:25.595Z,54.70
2023-02-23T16:17:10.079Z,54.60
2023-02-23T16:19:41.431Z,54.50
2023-02-23T16:22:17.736Z,54.40
2023-02-23T16:24:45.574Z,54.30
2023-02-23T16:27:13.515Z,54.40
2023-02-23T16:29:42.788Z,54.30
2023-02-23T16:32:13.733Z,54.30
2023-02-23T16:34:48.599Z,54.40
2023-02-23T16:37:17.743Z,54.40
2023-02-23T16:39:45.848Z,54.30
2023-02-23T16:42:18.644Z,54.30
2023-02-23T16:44:48.129Z,54.30
2023-02-23T16:47:33.356Z,54.30
2023-02-23T16:50:10.526Z,54.30
2023-02-23T16:52:47.183Z,54.30
2023-02-23T16:55:18.643Z,54.30
2023-02-23T16:57:47.570Z,54.30
2023-02-23T17:00:20.521Z,54.30
2023-02-23T17:02:48.472Z,54.30
2023-02-23T17:05:18.950Z,54.30
2023-02-23T17:07:46.878Z,54.50
2023-02-23T17:10:24.682Z,54.30
2023-02-23T17:12:54.335Z,54.50
2023-02-23T17:15:23.892Z,54.80
2023-02-23T17:17:53.305Z,54.90
2023-02-23T17:20:21.480Z,55.10
2023-02-23T17:22:50.466Z,55.20
2023-02-23T17:25:18.450Z,55.50
2023-02-23T17:27:46.341Z,55.60
2023-02-23T17:30:15.362Z,55.80
2023-02-23T17:32:44.806Z,55.90
2023-02-23T17:35:12.967Z,56.10
2023-02-23T17:37:42.175Z,56.10
2023-02-23T17:40:10.838Z,56.30
2023-02-23T17:42:38.826Z,56.40
2023-02-23T17:45:07.931Z,56.60
2023-02-23T17:47:39.658Z,56.70
2023-02-23T17:50:10.452Z,56.90
2023-02-23T17:52:38.571Z,58.10
2023-02-23T17:55:07.373Z,57.10
2023-02-23T17:57:35.578Z,57.30
2023-02-23T18:00:04.300Z,57.30
2023-02-23T18:02:39.836Z,57.40
2023-02-23T18:05:09.614Z,57.40
2023-02-23T18:07:37.891Z,57.50
2023-02-23T18:10:06.883Z,57.60
2023-02-23T18:12:35.129Z,57.80
2023-02-23T18:15:03.162Z,58.00
2023-02-23T18:17:33.905Z,58.20
2023-02-23T18:20:01.821Z,58.20
2023-02-23T18:22:31.051Z,58.50
2023-02-23T18:24:59.135Z,58.70
2023-02-23T18:27:27.154Z,59.60
2023-02-23T18:29:55.017Z,60.30
2023-02-23T18:32:23.305Z,61.20
2023-02-23T18:34:51.502Z,61.60
2023-02-23T18:37:25.298Z,62.20
2023-02-23T18:39:55.879Z,62.00
2023-02-23T18:42:23.831Z,62.10
2023-02-23T18:44:51.840Z,62.00
2023-02-23T18:47:19.996Z,61.70
2023-02-23T18:49:48.074Z,61.90
2023-02-23T18:52:16.114Z,61.70
2023-02-23T18:54:44.266Z,61.70
2023-02-23T18:57:13.756Z,62.80
2023-02-23T18:59:41.894Z,62.10
2023-02-23T19:02:11.066Z,62.60
2023-02-23T19:04:39.451Z,62.50
2023-02-23T19:07:07.548Z,62.70
2023-02-23T19:09:39.635Z,62.30
2023-02-23T19:12:08.658Z,62.60
2023-02-23T19:14:49.160Z,62.70
2023-02-23T19:17:17.803Z,61.70
2023-02-23T19:19:46.268Z,62.70
2023-02-23T19:22:14.342Z,62.90
2023-02-23T19:24:42.280Z,63.30
2023-02-23T19:27:11.233Z,63.20
2023-02-23T19:29:40.725Z,63.20
2023-02-23T19:32:09.232Z,62.70
2023-02-23T19:34:40.181Z,62.60
2023-02-23T19:37:09.006Z,62.90
2023-02-23T19:39:37.010Z,63.00
2023-02-23T19:42:05.736Z,62.80
2023-02-23T19:44:34.114Z,62.40
2023-02-23T19:47:03.424Z,62.70
2023-02-23T19:49:31.600Z,63.00
2023-02-23T19:52:00.767Z,63.20
2023-02-23T19:54:34.023Z,62.90
2023-02-23T19:57:02.098Z,63.40
2023-02-23T19:59:30.183Z,63.20
2023-02-23T20:01:58.416Z,62.90
2023-02-23T20:04:28.344Z,63.50
2023-02-23T20:06:56.517Z,63.20
2023-02-23T20:09:24.610Z,63.00
2023-02-23T20:11:52.748Z,62.90
2023-02-23T20:14:21.296Z,62.80
2023-02-23T20:16:50.055Z,62.80
2023-02-23T20:19:19.691Z,62.40
2023-02-23T20:21:50.141Z,62.30
2023-02-23T20:24:18.969Z,62.00
2023-02-23T20:26:47.462Z,61.90
2023-02-23T20:29:19.064Z,61.80
2023-02-23T20:31:50.453Z,62.20
2023-02-23T20:34:19.782Z,62.10
2023-02-23T20:36:50.989Z,62.30
2023-02-23T20:39:19.335Z,62.30
2023-02-23T20:41:47.944Z,62.70
2023-02-23T20:44:16.384Z,62.10
2023-02-23T20:46:45.053Z,61.90
2023-02-23T20:49:13.648Z,61.90
2023-02-23T20:51:42.759Z,62.10
2023-02-23T20:54:12.049Z,62.20
2023-02-23T20:56:40.156Z,62.10
2023-02-23T20:59:11.273Z,62.10
2023-02-23T21:01:39.550Z,62.20
2023-02-23T21:04:07.693Z,62.20
2023-02-23T21:06:35.670Z,62.50
2023-02-23T21:09:17.233Z,62.90
2023-02-23T21:11:46.679Z,63.30
2023-02-23T21:14:14.598Z,63.60
2023-02-23T21:16:45.185Z,63.40
2023-02-23T21:19:13.916Z,63.80
2023-02-23T21:21:42.075Z,63.20
2023-02-23T21:24:10.032Z,64.00
2023-02-23T21:26:38.162Z,64.70
2023-02-23T21:29:11.637Z,65.20
2023-02-23T21:31:40.093Z,65.90
2023-02-23T21:34:08.176Z,65.60
2023-02-23T21:36:36.483Z,65.40
2023-02-23T21:39:04.839Z,65.10
2023-02-23T21:41:33.782Z,65.00
2023-02-23T21:44:01.930Z,64.90
2023-02-23T21:46:31.230Z,65.10
2023-02-23T21:48:59.162Z,64.90
2023-02-23T21:51:27.208Z,64.80
2023-02-23T21:53:58.025Z,64.80
2023-02-23T21:56:25.951Z,64.90
2023-02-23T21:58:54.877Z,64.80
2023-02-23T22:01:24.284Z,64.90
2023-02-23T22:03:55.003Z,65.20
2023-02-23T22:06:23.914Z,65.20
2023-02-23T22:08:51.863Z,65.10
2023-02-23T22:11:21.257Z,65.10
2023-02-23T22:13:49.997Z,65.10
2023-02-23T22:16:19.413Z,65.20
2023-02-23T22:18:47.366Z,65.20
2023-02-23T22:21:19.097Z,65.20
2023-02-23T22:23:47.900Z,65.10
2023-02-23T22:26:15.855Z,65.10
2023-02-23T22:28:44.017Z,65.10
2023-02-23T22:31:12.935Z,64.90
2023-02-23T22:33:41.507Z,64.90
2023-02-23T22:36:10.942Z,64.90
2023-02-23T22:38:40.272Z,64.90
2023-02-23T22:41:10.133Z,64.90
2023-02-23T22:43:38.180Z,64.80
2023-02-23T22:46:07.618Z,64.90
2023-02-23T22:48:35.906Z,65.00
2023-02-23T22:51:03.825Z,64.80
2023-02-23T22:53:31.905Z,64.70
2023-02-23T22:56:01.182Z,64.60
2023-02-23T22:58:29.023Z,64.60
2023-02-23T23:01:04.047Z,64.60
2023-02-23T23:03:33.644Z,64.50
2023-02-23T23:06:03.696Z,64.50
2023-02-23T23:08:36.414Z,64.40
2023-02-23T23:11:09.463Z,64.40
2023-02-23T23:13:39.999Z,64.50
2023-02-23T23:16:16.926Z,64.40
2023-02-23T23:18:51.259Z,64.50
2023-02-23T23:21:21.899Z,64.40
2023-02-23T23:23:50.704Z,64.40
2023-02-23T23:26:20.669Z,64.40
2023-02-23T23:28:49.828Z,64.40
2023-02-23T23:31:21.665Z,64.50
2023-02-23T23:33:49.919Z,64.60
2023-02-23T23:36:18.107Z,64.70
2023-02-23T23:38:45.987Z,64.70
2023-02-23T23:41:14.766Z,64.70
2023-02-23T23:43:46.338Z,64.60
2023-02-23T23:46:16.044Z,64.70
2023-02-23T23:48:44.194Z,64.70
2023-02-23T23:51:12.092Z,64.60
2023-02-23T23:53:40.047Z,64.70
2023-02-23T23:56:10.675Z,64.60
2023-02-23T23:58:38.675Z,64.60
